sensor_id;sensor_type;location;lat;lon;timestamp;P1;durP1;ratioP1;P2;durP2;ratioP2
3613;SDS011;1821;50.936;6.854;2024-03-23T00:52:25;29.65;;;13.85;;
3613;SDS011;1821;50.936;6.854;2024-03-23T00:53:48;28.98;;;14.90;;
3613;SDS011;1821;50.936;6.854;2024-03-23T00:54:30;24.95;;;14.27;;
3613;SDS011;1821;50.936;6.854;2024-03-23T00:55:11;25.58;;;13.80;;
3613;SDS011;1821;50.936;6.854;2024-03-23T00:55:52;25.95;;;14.13;;
3613;SDS011;1821;50.936;6.854;2024-03-23T00:56:34;24.83;;;13.25;;
3613;SDS011;1821;50.936;6.854;2024-03-23T00:57:15;25.15;;;13.73;;
3613;SDS011;1821;50.936;6.854;2024-03-23T00:57:57;24.88;;;13.57;;
3613;SDS011;1821;50.936;6.854;2024-03-23T00:58:38;24.55;;;13.23;;
3613;SDS011;1821;50.936;6.854;2024-03-23T00:59:19;22.88;;;13.95;;
3613;SDS011;1821;50.936;6.854;2024-03-23T01:00:02;26.08;;;14.00;;
3613;SDS011;1821;50.936;6.854;2024-03-23T01:00:46;24.77;;;13.85;;
3613;SDS011;1821;50.936;6.854;2024-03-23T01:01:27;24.52;;;13.77;;
3613;SDS011;1821;50.936;6.854;2024-03-23T01:02:11;28.38;;;13.80;;
3613;SDS011;1821;50.936;6.854;2024-03-23T01:02:53;26.88;;;14.90;;
3613;SDS011;1821;50.936;6.854;2024-03-23T01:03:34;31.45;;;14.45;;
3613;SDS011;1821;50.936;6.854;2024-03-23T01:04:16;29.17;;;14.63;;
3613;SDS011;1821;50.936;6.854;2024-03-23T01:04:57;27.90;;;14.32;;
3613;SDS011;1821;50.936;6.854;2024-03-23T01:05:38;24.48;;;14.02;;
3613;SDS011;1821;50.936;6.854;2024-03-23T01:06:20;23.33;;;13.80;;
3613;SDS011;1821;50.936;6.854;2024-03-23T01:07:01;26.00;;;14.65;;
3613;SDS011;1821;50.936;6.854;2024-03-23T01:07:42;21.45;;;13.32;;
3613;SDS011;1821;50.936;6.854;2024-03-23T01:08:24;22.85;;;13.93;;
3613;SDS011;1821;50.936;6.854;2024-03-23T01:09:05;24.30;;;13.73;;
3613;SDS011;1821;50.936;6.854;2024-03-23T01:09:46;23.33;;;12.70;;
3613;SDS011;1821;50.936;6.854;2024-03-23T01:10:28;20.10;;;11.60;;
3613;SDS011;1821;50.936;6.854;2024-03-23T01:11:09;18.17;;;12.13;;
3613;SDS011;1821;50.936;6.854;2024-03-23T01:11:50;21.90;;;12.32;;
3613;SDS011;1821;50.936;6.854;2024-03-23T01:12:32;17.85;;;10.65;;
3613;SDS011;1821;50.936;6.854;2024-03-23T01:13:13;17.45;;;9.43;;
3613;SDS011;1821;50.936;6.854;2024-03-23T01:13:54;16.55;;;8.10;;
3613;SDS011;1821;50.936;6.854;2024-03-23T01:14:36;17.40;;;7.97;;
3613;SDS011;1821;50.936;6.854;2024-03-23T01:15:18;16.52;;;7.80;;
3613;SDS011;1821;50.936;6.854;2024-03-23T01:15:59;12.75;;;7.53;;
3613;SDS011;1821;50.936;6.854;2024-03-23T01:16:40;8.55;;;5.93;;
3613;SDS011;1821;50.936;6.854;2024-03-23T01:17:21;9.65;;;6.40;;
3613;SDS011;1821;50.936;6.854;2024-03-23T01:18:03;11.10;;;6.28;;
3613;SDS011;1821;50.936;6.854;2024-03-23T01:18:44;13.90;;;6.70;;
3613;SDS011;1821;50.936;6.854;2024-03-23T01:19:26;13.10;;;6.45;;
3613;SDS011;1821;50.936;6.854;2024-03-23T01:20:07;11.52;;;6.40;;
3613;SDS011;1821;50.936;6.854;2024-03-23T01:20:49;11.60;;;6.35;;
3613;SDS011;1821;50.936;6.854;2024-03-23T01:21:30;8.73;;;5.40;;
3613;SDS011;1821;50.936;6.854;2024-03-23T01:22:11;14.20;;;5.97;;
3613;SDS011;1821;50.936;6.854;2024-03-23T01:22:53;13.40;;;6.10;;
3613;SDS011;1821;50.936;6.854;2024-03-23T01:23:34;10.63;;;5.53;;
3613;SDS011;1821;50.936;6.854;2024-03-23T01:24:15;10.73;;;5.97;;
3613;SDS011;1821;50.936;6.854;2024-03-23T01:24:57;12.38;;;6.55;;
3613;SDS011;1821;50.936;6.854;2024-03-23T01:25:38;12.27;;;6.88;;
3613;SDS011;1821;50.936;6.854;2024-03-23T01:26:19;12.98;;;6.70;;
3613;SDS011;1821;50.936;6.854;2024-03-23T01:27:01;15.27;;;6.63;;
3613;SDS011;1821;50.936;6.854;2024-03-23T01:27:42;14.60;;;6.20;;
3613;SDS011;1821;50.936;6.854;2024-03-23T01:28:23;12.05;;;6.63;;
3613;SDS011;1821;50.936;6.854;2024-03-23T01:29:05;15.27;;;7.68;;
3613;SDS011;1821;50.936;6.854;2024-03-23T01:29:47;17.02;;;7.32;;
3613;SDS011;1821;50.936;6.854;2024-03-23T01:30:28;12.23;;;6.82;;
3613;SDS011;1821;50.936;6.854;2024-03-23T01:31:10;12.20;;;7.15;;
3613;SDS011;1821;50.936;6.854;2024-03-23T01:31:52;14.70;;;7.90;;
3613;SDS011;1821;50.936;6.854;2024-03-23T01:32:33;13.10;;;7.57;;
3613;SDS011;1821;50.936;6.854;2024-03-23T01:33:14;10.45;;;6.82;;
3613;SDS011;1821;50.936;6.854;2024-03-23T01:33:56;12.30;;;7.15;;
3613;SDS011;1821;50.936;6.854;2024-03-23T01:34:38;11.80;;;8.38;;
3613;SDS011;1821;50.936;6.854;2024-03-23T01:35:20;12.65;;;8.30;;
3613;SDS011;1821;50.936;6.854;2024-03-23T01:36:01;13.15;;;7.57;;
3613;SDS011;1821;50.936;6.854;2024-03-23T01:36:43;13.05;;;7.10;;
3613;SDS011;1821;50.936;6.854;2024-03-23T01:37:26;15.30;;;7.13;;
3613;SDS011;1821;50.936;6.854;2024-03-23T01:38:07;17.67;;;7.95;;
3613;SDS011;1821;50.936;6.854;2024-03-23T01:38:49;13.23;;;8.98;;
3613;SDS011;1821;50.936;6.854;2024-03-23T01:39:30;15.10;;;10.15;;
3613;SDS011;1821;50.936;6.854;2024-03-23T01:40:12;15.60;;;9.90;;
3613;SDS011;1821;50.936;6.854;2024-03-23T01:40:57;12.43;;;8.98;;
3613;SDS011;1821;50.936;6.854;2024-03-23T01:41:38;15.75;;;11.43;;
3613;SDS011;1821;50.936;6.854;2024-03-23T01:42:22;18.02;;;11.77;;
3613;SDS011;1821;50.936;6.854;2024-03-23T01:43:04;19.17;;;11.48;;
3613;SDS011;1821;50.936;6.854;2024-03-23T01:43:46;18.73;;;11.45;;
3613;SDS011;1821;50.936;6.854;2024-03-23T01:44:27;17.73;;;11.50;;
3613;SDS011;1821;50.936;6.854;2024-03-23T01:45:09;18.70;;;12.05;;
3613;SDS011;1821;50.936;6.854;2024-03-23T01:45:50;21.02;;;11.60;;
3613;SDS011;1821;50.936;6.854;2024-03-23T01:46:33;17.23;;;10.50;;
3613;SDS011;1821;50.936;6.854;2024-03-23T01:47:15;17.05;;;10.60;;
3613;SDS011;1821;50.936;6.854;2024-03-23T01:47:56;17.58;;;10.88;;
3613;SDS011;1821;50.936;6.854;2024-03-23T01:48:38;17.17;;;10.88;;
3613;SDS011;1821;50.936;6.854;2024-03-23T01:49:19;20.10;;;10.98;;
3613;SDS011;1821;50.936;6.854;2024-03-23T01:50:01;18.98;;;10.20;;
3613;SDS011;1821;50.936;6.854;2024-03-23T01:50:42;19.25;;;10.82;;
3613;SDS011;1821;50.936;6.854;2024-03-23T01:51:24;16.38;;;10.40;;
3613;SDS011;1821;50.936;6.854;2024-03-23T01:52:05;17.58;;;10.50;;
3613;SDS011;1821;50.936;6.854;2024-03-23T01:52:48;16.65;;;10.70;;
3613;SDS011;1821;50.936;6.854;2024-03-23T01:53:29;18.35;;;11.43;;
3613;SDS011;1821;50.936;6.854;2024-03-23T01:54:11;17.40;;;10.90;;
3613;SDS011;1821;50.936;6.854;2024-03-23T01:54:53;15.95;;;10.18;;
3613;SDS011;1821;50.936;6.854;2024-03-23T01:55:34;18.60;;;10.77;;
3613;SDS011;1821;50.936;6.854;2024-03-23T01:56:24;18.35;;;10.10;;
3613;SDS011;1821;50.936;6.854;2024-03-23T01:57:06;15.80;;;10.32;;
3613;SDS011;1821;50.936;6.854;2024-03-23T01:57:47;18.48;;;11.13;;
3613;SDS011;1821;50.936;6.854;2024-03-23T01:58:29;22.70;;;12.52;;
3613;SDS011;1821;50.936;6.854;2024-03-23T01:59:11;20.60;;;11.10;;
3613;SDS011;1821;50.936;6.854;2024-03-23T01:59:52;17.58;;;10.77;;
3613;SDS011;1821;50.936;6.854;2024-03-23T02:00:33;19.60;;;11.50;;
3613;SDS011;1821;50.936;6.854;2024-03-23T02:01:15;22.40;;;11.60;;
3613;SDS011;1821;50.936;6.854;2024-03-23T02:01:56;21.13;;;12.25;;
3613;SDS011;1821;50.936;6.854;2024-03-23T02:02:44;18.85;;;10.68;;
3613;SDS011;1821;50.936;6.854;2024-03-23T02:03:26;17.75;;;10.40;;
3613;SDS011;1821;50.936;6.854;2024-03-23T02:04:07;15.43;;;9.98;;
3613;SDS011;1821;50.936;6.854;2024-03-23T02:04:50;15.73;;;9.50;;
3613;SDS011;1821;50.936;6.854;2024-03-23T02:05:31;13.73;;;9.00;;
3613;SDS011;1821;50.936;6.854;2024-03-23T02:06:12;16.23;;;8.63;;
3613;SDS011;1821;50.936;6.854;2024-03-23T02:06:54;17.27;;;8.90;;
3613;SDS011;1821;50.936;6.854;2024-03-23T02:07:35;18.83;;;10.18;;
3613;SDS011;1821;50.936;6.854;2024-03-23T02:08:17;14.02;;;8.98;;
3613;SDS011;1821;50.936;6.854;2024-03-23T02:08:58;14.77;;;9.35;;
3613;SDS011;1821;50.936;6.854;2024-03-23T02:09:40;16.40;;;9.98;;
3613;SDS011;1821;50.936;6.854;2024-03-23T02:10:22;19.17;;;10.48;;
3613;SDS011;1821;50.936;6.854;2024-03-23T02:11:03;22.40;;;11.07;;
3613;SDS011;1821;50.936;6.854;2024-03-23T02:11:45;20.42;;;10.98;;
3613;SDS011;1821;50.936;6.854;2024-03-23T02:12:26;16.63;;;10.88;;
3613;SDS011;1821;50.936;6.854;2024-03-23T02:13:07;18.15;;;10.70;;
3613;SDS011;1821;50.936;6.854;2024-03-23T02:13:49;19.77;;;11.40;;
3613;SDS011;1821;50.936;6.854;2024-03-23T02:14:30;18.35;;;11.23;;
3613;SDS011;1821;50.936;6.854;2024-03-23T02:15:12;16.48;;;10.95;;
3613;SDS011;1821;50.936;6.854;2024-03-23T02:15:54;18.60;;;11.30;;
3613;SDS011;1821;50.936;6.854;2024-03-23T02:16:35;18.75;;;11.18;;
3613;SDS011;1821;50.936;6.854;2024-03-23T02:17:16;19.35;;;11.57;;
3613;SDS011;1821;50.936;6.854;2024-03-23T02:17:59;20.45;;;11.52;;
3613;SDS011;1821;50.936;6.854;2024-03-23T02:18:40;19.00;;;11.67;;
3613;SDS011;1821;50.936;6.854;2024-03-23T02:19:21;20.77;;;11.40;;
3613;SDS011;1821;50.936;6.854;2024-03-23T02:20:02;15.73;;;8.35;;
3613;SDS011;1821;50.936;6.854;2024-03-23T02:20:46;13.07;;;5.55;;
3613;SDS011;1821;50.936;6.854;2024-03-23T02:21:27;10.27;;;3.90;;
3613;SDS011;1821;50.936;6.854;2024-03-23T02:22:12;7.35;;;3.72;;
3613;SDS011;1821;50.936;6.854;2024-03-23T02:22:53;7.35;;;3.20;;
3613;SDS011;1821;50.936;6.854;2024-03-23T02:23:34;9.57;;;3.00;;
3613;SDS011;1821;50.936;6.854;2024-03-23T02:24:16;7.22;;;2.80;;
3613;SDS011;1821;50.936;6.854;2024-03-23T02:24:57;6.47;;;2.75;;
3613;SDS011;1821;50.936;6.854;2024-03-23T02:25:38;10.88;;;2.80;;
3613;SDS011;1821;50.936;6.854;2024-03-23T02:26:20;9.60;;;2.30;;
3613;SDS011;1821;50.936;6.854;2024-03-23T02:27:01;7.18;;;2.40;;
3613;SDS011;1821;50.936;6.854;2024-03-23T02:27:43;8.25;;;2.20;;
3613;SDS011;1821;50.936;6.854;2024-03-23T02:28:24;7.03;;;2.30;;
3613;SDS011;1821;50.936;6.854;2024-03-23T02:29:06;7.30;;;2.53;;
3613;SDS011;1821;50.936;6.854;2024-03-23T02:29:50;9.88;;;2.80;;
3613;SDS011;1821;50.936;6.854;2024-03-23T02:30:31;8.35;;;2.60;;
3613;SDS011;1821;50.936;6.854;2024-03-23T02:31:12;5.97;;;2.30;;
3613;SDS011;1821;50.936;6.854;2024-03-23T02:31:55;7.47;;;2.40;;
3613;SDS011;1821;50.936;6.854;2024-03-23T02:32:36;6.65;;;2.28;;
3613;SDS011;1821;50.936;6.854;2024-03-23T02:33:18;5.53;;;2.13;;
3613;SDS011;1821;50.936;6.854;2024-03-23T02:33:59;8.77;;;2.40;;
3613;SDS011;1821;50.936;6.854;2024-03-23T02:34:40;6.57;;;1.85;;
3613;SDS011;1821;50.936;6.854;2024-03-23T02:35:22;7.00;;;2.10;;
3613;SDS011;1821;50.936;6.854;2024-03-23T02:36:04;8.48;;;2.20;;
3613;SDS011;1821;50.936;6.854;2024-03-23T02:36:45;6.25;;;2.35;;
3613;SDS011;1821;50.936;6.854;2024-03-23T02:37:26;6.88;;;2.00;;
3613;SDS011;1821;50.936;6.854;2024-03-23T02:38:08;6.47;;;2.50;;
3613;SDS011;1821;50.936;6.854;2024-03-23T02:38:49;6.97;;;2.83;;
3613;SDS011;1821;50.936;6.854;2024-03-23T02:39:30;5.65;;;2.35;;
3613;SDS011;1821;50.936;6.854;2024-03-23T02:40:12;6.78;;;2.70;;
3613;SDS011;1821;50.936;6.854;2024-03-23T02:40:53;5.68;;;2.42;;
3613;SDS011;1821;50.936;6.854;2024-03-23T02:41:34;6.50;;;2.60;;
3613;SDS011;1821;50.936;6.854;2024-03-23T02:42:16;8.02;;;2.72;;
3613;SDS011;1821;50.936;6.854;2024-03-23T02:42:58;7.70;;;2.20;;
3613;SDS011;1821;50.936;6.854;2024-03-23T02:43:39;8.27;;;2.22;;
3613;SDS011;1821;50.936;6.854;2024-03-23T02:44:20;7.53;;;3.00;;
3613;SDS011;1821;50.936;6.854;2024-03-23T02:45:02;7.15;;;2.55;;
3613;SDS011;1821;50.936;6.854;2024-03-23T02:45:45;8.63;;;2.20;;
3613;SDS011;1821;50.936;6.854;2024-03-23T02:46:26;7.22;;;3.20;;
3613;SDS011;1821;50.936;6.854;2024-03-23T02:47:08;11.02;;;3.38;;
3613;SDS011;1821;50.936;6.854;2024-03-23T02:47:49;10.20;;;3.10;;
3613;SDS011;1821;50.936;6.854;2024-03-23T02:48:32;7.20;;;2.90;;
3613;SDS011;1821;50.936;6.854;2024-03-23T02:49:13;8.95;;;2.80;;
3613;SDS011;1821;50.936;6.854;2024-03-23T02:49:55;8.57;;;2.58;;
3613;SDS011;1821;50.936;6.854;2024-03-23T02:50:36;8.77;;;2.55;;
3613;SDS011;1821;50.936;6.854;2024-03-23T02:51:18;6.60;;;2.20;;
3613;SDS011;1821;50.936;6.854;2024-03-23T02:51:59;8.30;;;2.38;;
3613;SDS011;1821;50.936;6.854;2024-03-23T02:52:41;7.45;;;2.90;;
3613;SDS011;1821;50.936;6.854;2024-03-23T02:53:22;6.70;;;2.25;;
3613;SDS011;1821;50.936;6.854;2024-03-23T02:54:03;7.20;;;2.70;;
3613;SDS011;1821;50.936;6.854;2024-03-23T02:54:45;8.10;;;2.55;;
3613;SDS011;1821;50.936;6.854;2024-03-23T02:55:26;8.07;;;3.20;;
3613;SDS011;1821;50.936;6.854;2024-03-23T02:56:08;6.85;;;3.00;;
3613;SDS011;1821;50.936;6.854;2024-03-23T02:56:49;6.97;;;2.40;;
3613;SDS011;1821;50.936;6.854;2024-03-23T02:57:30;8.90;;;2.50;;
3613;SDS011;1821;50.936;6.854;2024-03-23T02:58:12;6.00;;;2.42;;
3613;SDS011;1821;50.936;6.854;2024-03-23T02:58:53;10.70;;;2.53;;
3613;SDS011;1821;50.936;6.854;2024-03-23T02:59:34;9.20;;;2.70;;
3613;SDS011;1821;50.936;6.854;2024-03-23T03:00:16;5.65;;;2.45;;
3613;SDS011;1821;50.936;6.854;2024-03-23T03:00:57;8.30;;;2.55;;
3613;SDS011;1821;50.936;6.854;2024-03-23T03:01:38;8.30;;;2.42;;
3613;SDS011;1821;50.936;6.854;2024-03-23T03:02:20;9.73;;;2.33;;
3613;SDS011;1821;50.936;6.854;2024-03-23T03:03:01;5.90;;;2.35;;
3613;SDS011;1821;50.936;6.854;2024-03-23T03:03:43;7.10;;;2.85;;
3613;SDS011;1821;50.936;6.854;2024-03-23T03:04:24;11.48;;;3.00;;
3613;SDS011;1821;50.936;6.854;2024-03-23T03:05:06;6.15;;;2.35;;
3613;SDS011;1821;50.936;6.854;2024-03-23T03:05:54;5.30;;;2.70;;
3613;SDS011;1821;50.936;6.854;2024-03-23T03:06:35;6.70;;;2.63;;
3613;SDS011;1821;50.936;6.854;2024-03-23T03:07:17;7.63;;;2.40;;
3613;SDS011;1821;50.936;6.854;2024-03-23T03:07:58;6.85;;;2.70;;
3613;SDS011;1821;50.936;6.854;2024-03-23T03:08:40;6.60;;;2.10;;
3613;SDS011;1821;50.936;6.854;2024-03-23T03:09:21;9.68;;;2.42;;
3613;SDS011;1821;50.936;6.854;2024-03-23T03:10:02;9.93;;;2.50;;
3613;SDS011;1821;50.936;6.854;2024-03-23T03:10:45;11.70;;;3.53;;
3613;SDS011;1821;50.936;6.854;2024-03-23T03:11:26;6.85;;;2.53;;
3613;SDS011;1821;50.936;6.854;2024-03-23T03:12:08;7.07;;;2.50;;
3613;SDS011;1821;50.936;6.854;2024-03-23T03:12:49;8.60;;;2.60;;
3613;SDS011;1821;50.936;6.854;2024-03-23T03:13:31;10.35;;;2.83;;
3613;SDS011;1821;50.936;6.854;2024-03-23T03:14:12;6.68;;;2.55;;
3613;SDS011;1821;50.936;6.854;2024-03-23T03:14:54;9.00;;;2.60;;
3613;SDS011;1821;50.936;6.854;2024-03-23T03:15:35;11.68;;;3.00;;
3613;SDS011;1821;50.936;6.854;2024-03-23T03:16:16;6.13;;;2.50;;
3613;SDS011;1821;50.936;6.854;2024-03-23T03:16:57;6.00;;;2.60;;
3613;SDS011;1821;50.936;6.854;2024-03-23T03:17:39;9.07;;;3.05;;
3613;SDS011;1821;50.936;6.854;2024-03-23T03:18:20;9.27;;;2.97;;
3613;SDS011;1821;50.936;6.854;2024-03-23T03:19:01;8.40;;;2.80;;
3613;SDS011;1821;50.936;6.854;2024-03-23T03:19:43;6.32;;;2.58;;
3613;SDS011;1821;50.936;6.854;2024-03-23T03:20:24;7.72;;;2.08;;
3613;SDS011;1821;50.936;6.854;2024-03-23T03:21:06;8.57;;;2.50;;
3613;SDS011;1821;50.936;6.854;2024-03-23T03:21:51;10.93;;;2.70;;
3613;SDS011;1821;50.936;6.854;2024-03-23T03:22:32;7.25;;;2.35;;
3613;SDS011;1821;50.936;6.854;2024-03-23T03:23:13;5.68;;;2.00;;
3613;SDS011;1821;50.936;6.854;2024-03-23T03:23:55;9.02;;;2.50;;
3613;SDS011;1821;50.936;6.854;2024-03-23T03:24:39;8.90;;;2.78;;
3613;SDS011;1821;50.936;6.854;2024-03-23T03:25:20;10.07;;;3.75;;
3613;SDS011;1821;50.936;6.854;2024-03-23T03:26:02;11.55;;;2.85;;
3613;SDS011;1821;50.936;6.854;2024-03-23T03:26:43;11.45;;;2.60;;
3613;SDS011;1821;50.936;6.854;2024-03-23T03:27:24;11.98;;;2.90;;
3613;SDS011;1821;50.936;6.854;2024-03-23T03:28:06;8.30;;;2.80;;
3613;SDS011;1821;50.936;6.854;2024-03-23T03:28:47;11.30;;;3.10;;
3613;SDS011;1821;50.936;6.854;2024-03-23T03:29:29;11.27;;;3.00;;
3613;SDS011;1821;50.936;6.854;2024-03-23T03:30:15;8.70;;;2.80;;
3613;SDS011;1821;50.936;6.854;2024-03-23T03:30:57;7.78;;;3.28;;
3613;SDS011;1821;50.936;6.854;2024-03-23T03:31:38;8.60;;;2.88;;
3613;SDS011;1821;50.936;6.854;2024-03-23T03:32:20;9.50;;;3.20;;
3613;SDS011;1821;50.936;6.854;2024-03-23T03:33:01;8.95;;;2.83;;
3613;SDS011;1821;50.936;6.854;2024-03-23T03:33:43;6.28;;;2.97;;
3613;SDS011;1821;50.936;6.854;2024-03-23T03:34:24;8.40;;;3.30;;
3613;SDS011;1821;50.936;6.854;2024-03-23T03:35:05;10.30;;;3.22;;
3613;SDS011;1821;50.936;6.854;2024-03-23T03:35:47;6.53;;;2.58;;
3613;SDS011;1821;50.936;6.854;2024-03-23T03:36:28;5.93;;;2.38;;
3613;SDS011;1821;50.936;6.854;2024-03-23T03:37:09;6.45;;;2.50;;
3613;SDS011;1821;50.936;6.854;2024-03-23T03:37:51;8.20;;;3.05;;
3613;SDS011;1821;50.936;6.854;2024-03-23T03:38:32;7.22;;;3.10;;
3613;SDS011;1821;50.936;6.854;2024-03-23T03:39:15;6.78;;;2.53;;
3613;SDS011;1821;50.936;6.854;2024-03-23T03:39:57;7.35;;;2.88;;
3613;SDS011;1821;50.936;6.854;2024-03-23T03:40:38;9.73;;;2.85;;
3613;SDS011;1821;50.936;6.854;2024-03-23T03:41:19;11.80;;;3.10;;
3613;SDS011;1821;50.936;6.854;2024-03-23T03:42:01;6.55;;;2.70;;
3613;SDS011;1821;50.936;6.854;2024-03-23T03:42:46;7.95;;;2.33;;
3613;SDS011;1821;50.936;6.854;2024-03-23T03:43:29;9.07;;;2.78;;
3613;SDS011;1821;50.936;6.854;2024-03-23T03:44:14;8.90;;;2.90;;
3613;SDS011;1821;50.936;6.854;2024-03-23T03:44:55;9.20;;;2.88;;
3613;SDS011;1821;50.936;6.854;2024-03-23T03:45:36;5.90;;;2.35;;
3613;SDS011;1821;50.936;6.854;2024-03-23T03:46:18;5.50;;;2.40;;
3613;SDS011;1821;50.936;6.854;2024-03-23T03:46:59;6.68;;;2.70;;
3613;SDS011;1821;50.936;6.854;2024-03-23T03:47:41;7.80;;;2.60;;
3613;SDS011;1821;50.936;6.854;2024-03-23T03:48:22;8.75;;;3.08;;
3613;SDS011;1821;50.936;6.854;2024-03-23T03:49:03;9.52;;;3.03;;
3613;SDS011;1821;50.936;6.854;2024-03-23T03:49:45;9.02;;;2.53;;
3613;SDS011;1821;50.936;6.854;2024-03-23T03:50:27;11.75;;;2.15;;
3613;SDS011;1821;50.936;6.854;2024-03-23T03:51:08;10.00;;;2.72;;
3613;SDS011;1821;50.936;6.854;2024-03-23T03:51:49;7.55;;;2.85;;
3613;SDS011;1821;50.936;6.854;2024-03-23T03:52:30;9.63;;;3.25;;
3613;SDS011;1821;50.936;6.854;2024-03-23T03:53:11;7.43;;;3.25;;
3613;SDS011;1821;50.936;6.854;2024-03-23T03:53:53;5.45;;;2.90;;
3613;SDS011;1821;50.936;6.854;2024-03-23T03:54:34;11.07;;;3.13;;
3613;SDS011;1821;50.936;6.854;2024-03-23T03:55:15;10.90;;;2.88;;
3613;SDS011;1821;50.936;6.854;2024-03-23T03:56:00;8.65;;;2.40;;
3613;SDS011;1821;50.936;6.854;2024-03-23T03:56:42;7.97;;;2.40;;
3613;SDS011;1821;50.936;6.854;2024-03-23T03:57:23;9.13;;;2.55;;
3613;SDS011;1821;50.936;6.854;2024-03-23T03:58:04;8.02;;;2.75;;
3613;SDS011;1821;50.936;6.854;2024-03-23T03:58:46;9.10;;;2.58;;
3613;SDS011;1821;50.936;6.854;2024-03-23T03:59:27;8.85;;;2.70;;
3613;SDS011;1821;50.936;6.854;2024-03-23T04:00:08;11.57;;;2.80;;
3613;SDS011;1821;50.936;6.854;2024-03-23T04:00:53;7.80;;;2.70;;
3613;SDS011;1821;50.936;6.854;2024-03-23T04:01:34;11.52;;;2.80;;
3613;SDS011;1821;50.936;6.854;2024-03-23T04:02:15;8.10;;;3.15;;
3613;SDS011;1821;50.936;6.854;2024-03-23T04:02:57;12.10;;;3.50;;
3613;SDS011;1821;50.936;6.854;2024-03-23T04:03:38;11.38;;;3.50;;
3613;SDS011;1821;50.936;6.854;2024-03-23T04:04:23;11.77;;;3.50;;
3613;SDS011;1821;50.936;6.854;2024-03-23T04:05:05;7.82;;;2.90;;
3613;SDS011;1821;50.936;6.854;2024-03-23T04:05:53;10.85;;;3.65;;
3613;SDS011;1821;50.936;6.854;2024-03-23T04:06:34;9.75;;;3.78;;
3613;SDS011;1821;50.936;6.854;2024-03-23T04:07:16;8.90;;;2.70;;
3613;SDS011;1821;50.936;6.854;2024-03-23T04:07:58;10.25;;;2.60;;
3613;SDS011;1821;50.936;6.854;2024-03-23T04:08:40;10.55;;;2.90;;
3613;SDS011;1821;50.936;6.854;2024-03-23T04:09:21;9.45;;;2.90;;
3613;SDS011;1821;50.936;6.854;2024-03-23T04:10:02;10.57;;;3.00;;
3613;SDS011;1821;50.936;6.854;2024-03-23T04:10:47;11.80;;;3.20;;
3613;SDS011;1821;50.936;6.854;2024-03-23T04:11:32;8.88;;;3.05;;
3613;SDS011;1821;50.936;6.854;2024-03-23T04:12:13;8.40;;;2.50;;
3613;SDS011;1821;50.936;6.854;2024-03-23T04:12:55;11.98;;;3.10;;
3613;SDS011;1821;50.936;6.854;2024-03-23T04:13:37;8.90;;;2.75;;
3613;SDS011;1821;50.936;6.854;2024-03-23T04:14:18;6.28;;;2.80;;
3613;SDS011;1821;50.936;6.854;2024-03-23T04:15:00;8.68;;;2.78;;
3613;SDS011;1821;50.936;6.854;2024-03-23T04:15:44;10.10;;;3.08;;
3613;SDS011;1821;50.936;6.854;2024-03-23T04:16:29;9.40;;;3.40;;
3613;SDS011;1821;50.936;6.854;2024-03-23T04:17:11;8.98;;;2.95;;
3613;SDS011;1821;50.936;6.854;2024-03-23T04:17:52;8.90;;;2.80;;
3613;SDS011;1821;50.936;6.854;2024-03-23T04:18:34;9.02;;;2.70;;
3613;SDS011;1821;50.936;6.854;2024-03-23T04:19:15;8.20;;;2.92;;
3613;SDS011;1821;50.936;6.854;2024-03-23T04:19:57;7.05;;;2.70;;
3613;SDS011;1821;50.936;6.854;2024-03-23T04:20:38;9.32;;;4.13;;
3613;SDS011;1821;50.936;6.854;2024-03-23T04:21:20;10.80;;;5.07;;
3613;SDS011;1821;50.936;6.854;2024-03-23T04:22:01;12.65;;;4.00;;
3613;SDS011;1821;50.936;6.854;2024-03-23T04:22:43;13.32;;;3.53;;
3613;SDS011;1821;50.936;6.854;2024-03-23T04:23:25;10.35;;;3.58;;
3613;SDS011;1821;50.936;6.854;2024-03-23T04:24:06;5.47;;;2.80;;
3613;SDS011;1821;50.936;6.854;2024-03-23T04:24:47;6.32;;;3.28;;
3613;SDS011;1821;50.936;6.854;2024-03-23T04:25:28;11.48;;;3.30;;
3613;SDS011;1821;50.936;6.854;2024-03-23T04:26:10;10.18;;;3.00;;
3613;SDS011;1821;50.936;6.854;2024-03-23T04:26:52;8.25;;;2.80;;
3613;SDS011;1821;50.936;6.854;2024-03-23T04:27:34;9.52;;;2.80;;
3613;SDS011;1821;50.936;6.854;2024-03-23T04:28:15;9.85;;;3.30;;
3613;SDS011;1821;50.936;6.854;2024-03-23T04:28:56;9.05;;;2.70;;
3613;SDS011;1821;50.936;6.854;2024-03-23T04:29:38;10.13;;;3.10;;
3613;SDS011;1821;50.936;6.854;2024-03-23T04:30:19;9.70;;;3.50;;
3613;SDS011;1821;50.936;6.854;2024-03-23T04:31:03;6.50;;;3.10;;
3613;SDS011;1821;50.936;6.854;2024-03-23T04:31:44;7.63;;;3.20;;
3613;SDS011;1821;50.936;6.854;2024-03-23T04:32:26;10.52;;;4.00;;
3613;SDS011;1821;50.936;6.854;2024-03-23T04:33:07;11.50;;;3.40;;
3613;SDS011;1821;50.936;6.854;2024-03-23T04:33:49;10.70;;;3.17;;
3613;SDS011;1821;50.936;6.854;2024-03-23T04:34:30;8.10;;;2.95;;
3613;SDS011;1821;50.936;6.854;2024-03-23T04:35:13;10.27;;;3.20;;
3613;SDS011;1821;50.936;6.854;2024-03-23T04:35:54;8.88;;;2.92;;
3613;SDS011;1821;50.936;6.854;2024-03-23T04:36:35;12.63;;;3.30;;
3613;SDS011;1821;50.936;6.854;2024-03-23T04:37:17;12.02;;;3.13;;
3613;SDS011;1821;50.936;6.854;2024-03-23T04:37:58;10.13;;;3.13;;
3613;SDS011;1821;50.936;6.854;2024-03-23T04:38:40;11.18;;;3.42;;
3613;SDS011;1821;50.936;6.854;2024-03-23T04:39:23;9.15;;;3.03;;
3613;SDS011;1821;50.936;6.854;2024-03-23T04:40:05;7.45;;;3.40;;
3613;SDS011;1821;50.936;6.854;2024-03-23T04:41:20;7.63;;;2.97;;
3613;SDS011;1821;50.936;6.854;2024-03-23T04:41:55;7.60;;;3.60;;
3613;SDS011;1821;50.936;6.854;2024-03-23T04:42:37;8.45;;;3.40;;
3613;SDS011;1821;50.936;6.854;2024-03-23T04:43:18;8.07;;;3.10;;
3613;SDS011;1821;50.936;6.854;2024-03-23T04:43:59;10.10;;;3.70;;
3613;SDS011;1821;50.936;6.854;2024-03-23T04:44:41;8.27;;;3.50;;
3613;SDS011;1821;50.936;6.854;2024-03-23T04:45:22;7.88;;;3.08;;
3613;SDS011;1821;50.936;6.854;2024-03-23T04:46:04;10.90;;;3.45;;
3613;SDS011;1821;50.936;6.854;2024-03-23T04:46:46;14.48;;;3.75;;
3613;SDS011;1821;50.936;6.854;2024-03-23T04:47:27;12.45;;;3.10;;
3613;SDS011;1821;50.936;6.854;2024-03-23T04:48:09;12.90;;;3.97;;
3613;SDS011;1821;50.936;6.854;2024-03-23T04:48:50;13.60;;;3.55;;
3613;SDS011;1821;50.936;6.854;2024-03-23T04:49:32;10.75;;;3.20;;
3613;SDS011;1821;50.936;6.854;2024-03-23T04:50:13;9.93;;;3.30;;
3613;SDS011;1821;50.936;6.854;2024-03-23T04:50:55;9.73;;;3.50;;
3613;SDS011;1821;50.936;6.854;2024-03-23T04:51:37;10.95;;;3.60;;
3613;SDS011;1821;50.936;6.854;2024-03-23T04:52:20;13.30;;;4.00;;
3613;SDS011;1821;50.936;6.854;2024-03-23T04:53:01;11.05;;;3.08;;
3613;SDS011;1821;50.936;6.854;2024-03-23T04:53:43;9.05;;;2.67;;
3613;SDS011;1821;50.936;6.854;2024-03-23T04:54:24;7.45;;;3.30;;
3613;SDS011;1821;50.936;6.854;2024-03-23T04:55:05;9.32;;;3.30;;
3613;SDS011;1821;50.936;6.854;2024-03-23T04:55:47;10.90;;;3.20;;
3613;SDS011;1821;50.936;6.854;2024-03-23T04:56:28;11.48;;;3.40;;
3613;SDS011;1821;50.936;6.854;2024-03-23T04:57:10;10.55;;;3.35;;
3613;SDS011;1821;50.936;6.854;2024-03-23T04:57:51;11.50;;;3.25;;
3613;SDS011;1821;50.936;6.854;2024-03-23T04:58:33;10.10;;;3.00;;
3613;SDS011;1821;50.936;6.854;2024-03-23T04:59:14;9.05;;;3.22;;
3613;SDS011;1821;50.936;6.854;2024-03-23T04:59:56;8.93;;;3.60;;
3613;SDS011;1821;50.936;6.854;2024-03-23T05:00:38;9.30;;;3.10;;
3613;SDS011;1821;50.936;6.854;2024-03-23T05:01:19;8.07;;;3.20;;
3613;SDS011;1821;50.936;6.854;2024-03-23T05:02:01;11.38;;;4.03;;
3613;SDS011;1821;50.936;6.854;2024-03-23T05:02:43;9.93;;;3.55;;
3613;SDS011;1821;50.936;6.854;2024-03-23T05:03:25;10.05;;;2.88;;
3613;SDS011;1821;50.936;6.854;2024-03-23T05:04:06;12.70;;;3.35;;
3613;SDS011;1821;50.936;6.854;2024-03-23T05:04:48;9.57;;;3.20;;
3613;SDS011;1821;50.936;6.854;2024-03-23T05:05:29;9.50;;;3.20;;
3613;SDS011;1821;50.936;6.854;2024-03-23T05:06:10;8.32;;;3.30;;
3613;SDS011;1821;50.936;6.854;2024-03-23T05:06:52;7.25;;;2.92;;
3613;SDS011;1821;50.936;6.854;2024-03-23T05:07:33;10.18;;;3.20;;
3613;SDS011;1821;50.936;6.854;2024-03-23T05:08:15;9.18;;;3.30;;
3613;SDS011;1821;50.936;6.854;2024-03-23T05:08:57;6.90;;;3.03;;
3613;SDS011;1821;50.936;6.854;2024-03-23T05:09:38;10.45;;;2.90;;